createdAt,value
2023-03-03T00:03:03.642Z,1.72
2023-03-03T00:07:03.657Z,1.90
2023-03-03T00:11:03.576Z,2.16
2023-03-03T00:15:03.481Z,1.88
2023-03-03T00:19:03.630Z,1.50
2023-03-03T00:23:03.520Z,1.52
2023-03-03T00:27:03.363Z,1.53
2023-03-03T00:31:03.507Z,1.27
2023-03-03T00:35:03.370Z,1.73
2023-03-03T00:39:03.336Z,1.98
2023-03-03T00:43:03.269Z,1.67
2023-03-03T00:47:03.261Z,1.76
2023-03-03T00:51:03.340Z,1.42
2023-03-03T00:55:03.331Z,1.80
2023-03-03T00:59:03.322Z,1.54
2023-03-03T01:03:03.302Z,1.67
2023-03-03T01:09:18.605Z,1.45
2023-03-03T01:13:18.570Z,2.29
2023-03-03T01:17:18.524Z,1.96
2023-03-03T01:21:18.641Z,1.64
2023-03-03T01:25:18.620Z,1.80
2023-03-03T01:29:18.425Z,1.43
2023-03-03T01:33:18.644Z,1.46
2023-03-03T01:37:18.476Z,1.54
2023-03-03T01:41:18.319Z,1.69
2023-03-03T01:45:18.406Z,1.84
2023-03-03T01:49:18.363Z,1.61
2023-03-03T01:53:18.249Z,1.62
2023-03-03T01:57:18.291Z,1.66
2023-03-03T02:01:18.410Z,1.42
2023-03-03T02:05:18.115Z,1.51
2023-03-03T02:09:18.182Z,1.47
2023-03-03T02:13:18.212Z,1.57
2023-03-03T02:17:18.004Z,1.73
2023-03-03T02:21:18.096Z,1.90
2023-03-03T02:25:18.104Z,1.61
2023-03-03T02:29:17.881Z,1.67
2023-03-03T02:33:17.975Z,1.40
2023-03-03T02:37:18.002Z,1.52
2023-03-03T02:41:17.740Z,1.61
2023-03-03T02:45:17.698Z,1.93
2023-03-03T02:49:17.828Z,1.56
2023-03-03T02:53:17.649Z,2.11
2023-03-03T02:57:17.646Z,1.84
2023-03-03T03:01:17.608Z,1.86
2023-03-03T03:05:17.545Z,1.60
2023-03-03T03:09:17.519Z,1.19
2023-03-03T03:13:17.504Z,1.53
2023-03-03T03:17:17.457Z,1.51
2023-03-03T03:21:17.394Z,1.49
2023-03-03T03:25:17.540Z,1.39
2023-03-03T03:29:17.497Z,1.90
2023-03-03T03:33:17.431Z,1.44
2023-03-03T03:37:17.463Z,1.51
2023-03-03T03:41:17.407Z,1.59
2023-03-03T03:45:17.336Z,1.51
2023-03-03T03:49:18.869Z,1.55
2023-03-03T03:53:17.240Z,1.56
2023-03-03T03:57:17.163Z,1.76
2023-03-03T04:01:17.189Z,1.50
2023-03-03T04:05:17.088Z,1.91
2023-03-03T04:09:17.138Z,1.76
2023-03-03T04:13:17.092Z,1.76
2023-03-03T04:17:17.138Z,1.21
2023-03-03T04:21:16.937Z,1.74
2023-03-03T04:25:16.931Z,1.55
2023-03-03T04:29:16.896Z,1.41
2023-03-03T04:33:16.888Z,1.50
2023-03-03T04:37:16.864Z,1.43
2023-03-03T04:41:16.825Z,1.56
2023-03-03T04:45:16.661Z,1.68
2023-03-03T04:49:16.636Z,1.51
2023-03-03T04:53:16.670Z,1.72
2023-03-03T04:57:16.674Z,1.69
2023-03-03T05:01:16.798Z,1.57
2023-03-03T05:05:16.832Z,1.53
2023-03-03T05:09:16.760Z,1.67
2023-03-03T05:13:16.718Z,2.36
2023-03-03T05:17:16.731Z,2.38
2023-03-03T05:21:16.857Z,2.16
2023-03-03T05:25:16.774Z,2.65
2023-03-03T05:29:16.697Z,3.15
2023-03-03T05:33:16.547Z,2.50
2023-03-03T05:37:16.498Z,2.61
2023-03-03T05:41:16.497Z,3.20
2023-03-03T05:45:16.454Z,2.69
2023-03-03T05:49:16.451Z,2.37
2023-03-03T05:53:16.323Z,2.77
2023-03-03T05:57:16.355Z,2.07
2023-03-03T06:01:16.349Z,2.26
2023-03-03T06:05:16.367Z,2.83
2023-03-03T06:09:16.625Z,2.51
2023-03-03T06:13:16.569Z,3.08
2023-03-03T06:17:16.478Z,2.75
2023-03-03T06:21:16.496Z,2.86
2023-03-03T06:25:16.429Z,3.72
2023-03-03T06:29:16.280Z,6.02
2023-03-03T06:33:16.366Z,5.35
2023-03-03T06:37:16.344Z,3.77
2023-03-03T06:41:16.271Z,3.82
2023-03-03T06:45:16.226Z,3.86
2023-03-03T06:49:16.188Z,3.84
2023-03-03T06:53:16.062Z,3.61
2023-03-03T06:57:16.210Z,3.39
2023-03-03T07:01:16.149Z,3.35
2023-03-03T07:05:15.929Z,3.03
2023-03-03T07:09:16.026Z,3.28
2023-03-03T07:13:15.967Z,3.26
2023-03-03T07:17:15.843Z,3.48
2023-03-03T07:21:16.024Z,3.36
2023-03-03T07:25:15.938Z,4.48
2023-03-03T07:29:15.867Z,4.39
2023-03-03T07:33:16.035Z,4.63
2023-03-03T07:37:16.124Z,4.27
2023-03-03T07:41:15.966Z,3.64
2023-03-03T07:45:16.122Z,7.04
2023-03-03T07:49:16.257Z,5.33
2023-03-03T07:53:16.327Z,4.62
2023-03-03T07:57:16.519Z,4.68
2023-03-03T08:01:16.459Z,4.58
2023-03-03T08:05:16.608Z,3.70
2023-03-03T08:09:16.652Z,4.09
2023-03-03T08:13:16.710Z,2.90
2023-03-03T08:17:16.699Z,4.41
2023-03-03T08:21:16.630Z,3.87
2023-03-03T08:25:16.553Z,4.29
2023-03-03T08:29:16.528Z,3.67
2023-03-03T08:33:16.485Z,4.13
2023-03-03T08:37:16.456Z,7.18
2023-03-03T08:41:16.382Z,5.63
2023-03-03T08:45:16.529Z,5.32
2023-03-03T08:49:16.543Z,5.63
2023-03-03T08:53:16.399Z,6.64
2023-03-03T08:57:16.434Z,4.79
2023-03-03T09:01:16.416Z,5.85
2023-03-03T09:05:16.296Z,5.74
2023-03-03T09:09:16.346Z,5.02
2023-03-03T09:13:16.503Z,5.82
2023-03-03T09:17:17.610Z,6.80
2023-03-03T09:21:16.202Z,6.23
2023-03-03T09:25:16.183Z,7.07
2023-03-03T09:29:16.114Z,6.28
2023-03-03T09:33:16.275Z,5.61
2023-03-03T09:37:16.277Z,5.58
2023-03-03T09:41:16.095Z,6.41
2023-03-03T09:45:16.153Z,4.76
2023-03-03T09:49:16.173Z,4.37
2023-03-03T09:53:15.951Z,4.63
2023-03-03T09:57:16.101Z,4.02
2023-03-03T10:01:16.069Z,4.23
2023-03-03T10:05:15.841Z,4.07
2023-03-03T10:09:15.993Z,4.02
2023-03-03T10:13:15.925Z,3.47
2023-03-03T10:17:15.720Z,3.79
2023-03-03T10:21:15.860Z,3.89
2023-03-03T10:25:15.785Z,4.39
2023-03-03T10:29:22.183Z,3.37
2023-03-03T10:33:16.988Z,4.30
2023-03-03T10:37:15.903Z,4.95
2023-03-03T10:41:15.894Z,3.99
2023-03-03T10:45:15.645Z,4.23
2023-03-03T10:49:15.697Z,3.78
2023-03-03T10:53:15.656Z,3.82
2023-03-03T10:57:15.642Z,3.18
2023-03-03T11:01:15.571Z,3.50
2023-03-03T11:05:15.705Z,4.01
2023-03-03T11:09:15.683Z,3.43
2023-03-03T11:13:15.556Z,3.98
2023-03-03T11:17:15.473Z,3.82
2023-03-03T11:21:15.404Z,4.26
2023-03-03T11:25:15.385Z,3.95
2023-03-03T11:29:15.364Z,3.79
2023-03-03T11:33:15.369Z,3.43
2023-03-03T11:37:15.250Z,4.20
2023-03-03T11:41:15.194Z,4.14
2023-03-03T11:45:15.205Z,3.62
2023-03-03T11:49:15.171Z,4.25
2023-03-03T11:53:15.228Z,4.36
2023-03-03T11:57:15.297Z,3.90
2023-03-03T12:01:15.534Z,3.79
2023-03-03T12:05:15.899Z,3.72
2023-03-03T12:09:15.884Z,4.36
2023-03-03T12:13:15.830Z,4.00
2023-03-03T12:17:15.980Z,5.06
2023-03-03T12:21:16.059Z,5.76
2023-03-03T12:25:16.241Z,4.64
2023-03-03T12:29:16.190Z,4.67
2023-03-03T12:33:16.233Z,4.26
2023-03-03T12:37:16.242Z,4.04
2023-03-03T12:41:16.152Z,3.84
2023-03-03T12:45:16.257Z,4.57
2023-03-03T12:49:16.236Z,4.42
2023-03-03T12:53:16.215Z,3.78
2023-03-03T12:57:16.078Z,4.66
2023-03-03T13:01:16.025Z,4.11
2023-03-03T13:05:15.963Z,4.75
2023-03-03T13:09:15.992Z,3.84
2023-03-03T13:13:16.169Z,4.73
2023-03-03T13:17:16.061Z,4.59
2023-03-03T13:21:15.819Z,3.52
2023-03-03T13:25:16.032Z,3.84
2023-03-03T13:29:15.935Z,3.76
2023-03-03T13:33:15.997Z,4.61
2023-03-03T13:37:15.817Z,4.99
2023-03-03T13:41:15.684Z,4.34
2023-03-03T13:45:15.980Z,3.87
2023-03-03T13:49:15.916Z,4.56
2023-03-03T13:53:15.957Z,4.88
2023-03-03T13:57:16.382Z,5.18
2023-03-03T14:01:16.492Z,5.05
2023-03-03T14:05:16.378Z,6.27
2023-03-03T14:09:16.650Z,6.93
2023-03-03T14:13:16.924Z,5.14
2023-03-03T14:17:16.977Z,4.87
2023-03-03T14:21:17.158Z,4.06
2023-03-03T14:25:17.512Z,5.13
2023-03-03T14:29:17.419Z,5.74
2023-03-03T14:33:17.575Z,5.86
2023-03-03T14:37:17.744Z,6.44
2023-03-03T14:41:17.765Z,7.84
2023-03-03T14:45:29.051Z,6.48
2023-03-03T14:49:18.858Z,8.00
2023-03-03T14:53:17.659Z,7.34
2023-03-03T14:57:18.042Z,7.51
2023-03-03T15:01:18.235Z,7.64
2023-03-03T15:05:18.032Z,8.15
2023-03-03T15:09:17.947Z,8.38
2023-03-03T15:13:17.878Z,7.54
2023-03-03T15:17:17.830Z,7.57
2023-03-03T15:21:17.780Z,6.57
2023-03-03T15:25:20.787Z,7.30
2023-03-03T15:29:17.962Z,7.40
2023-03-03T15:33:17.921Z,8.35
2023-03-03T15:37:17.801Z,7.74
2023-03-03T15:41:17.759Z,7.27
2023-03-03T15:45:17.766Z,7.75
2023-03-03T15:49:17.694Z,7.36
2023-03-03T15:53:17.596Z,7.47
2023-03-03T15:57:17.483Z,6.29
2023-03-03T16:01:17.527Z,5.90
2023-03-03T16:05:17.520Z,5.95
2023-03-03T16:09:17.834Z,5.64
2023-03-03T16:13:17.802Z,5.09
2023-03-03T16:17:17.655Z,5.22
2023-03-03T16:21:17.704Z,4.94
2023-03-03T16:25:17.672Z,4.95
2023-03-03T16:29:17.547Z,5.86
2023-03-03T16:33:17.466Z,5.53
2023-03-03T16:37:17.519Z,5.19
2023-03-03T16:41:17.572Z,4.71
2023-03-03T16:45:17.403Z,4.48
2023-03-03T16:49:17.371Z,3.70
2023-03-03T16:53:17.281Z,3.92
2023-03-03T16:57:17.283Z,4.75
2023-03-03T17:01:17.343Z,3.74
2023-03-03T17:05:17.165Z,4.14
2023-03-03T17:09:31.588Z,3.64
2023-03-03T17:13:18.274Z,4.64
2023-03-03T17:17:17.247Z,4.31
2023-03-03T17:21:17.407Z,4.15
2023-03-03T17:25:17.356Z,3.60
2023-03-03T17:29:17.362Z,2.85
2023-03-03T17:33:17.308Z,3.69
2023-03-03T17:37:17.247Z,4.12
2023-03-03T17:41:17.272Z,3.79
2023-03-03T17:45:17.202Z,3.03
2023-03-03T17:49:17.229Z,3.71
2023-03-03T17:53:17.144Z,3.91
2023-03-03T17:57:17.093Z,3.42
2023-03-03T18:01:17.106Z,3.58
2023-03-03T18:05:17.014Z,3.42
2023-03-03T18:09:16.994Z,4.03
2023-03-03T18:13:16.939Z,3.26
2023-03-03T18:17:16.897Z,3.84
2023-03-03T18:21:16.948Z,3.37
2023-03-03T18:25:16.913Z,3.92
2023-03-03T18:29:16.806Z,3.36
2023-03-03T18:33:16.795Z,3.35
2023-03-03T18:37:16.735Z,3.71
2023-03-03T18:41:16.865Z,3.86
2023-03-03T18:45:16.785Z,3.76
2023-03-03T18:49:16.744Z,4.18
2023-03-03T18:53:16.726Z,3.91
2023-03-03T18:57:16.723Z,3.66
2023-03-03T19:01:16.663Z,4.13
2023-03-03T19:05:16.662Z,4.27
2023-03-03T19:09:16.589Z,3.77
2023-03-03T19:13:16.606Z,4.08
2023-03-03T19:17:16.562Z,4.05
2023-03-03T19:21:16.312Z,3.80
2023-03-03T19:25:16.300Z,3.31
2023-03-03T19:29:16.337Z,3.90
2023-03-03T19:33:16.429Z,4.72
2023-03-03T19:37:16.397Z,3.83
2023-03-03T19:41:16.193Z,4.33
2023-03-03T19:45:16.297Z,3.58
2023-03-03T19:49:16.311Z,3.78
2023-03-03T19:53:16.053Z,4.11
2023-03-03T19:57:16.168Z,4.17
2023-03-03T20:01:16.147Z,4.06
2023-03-03T20:05:15.953Z,4.74
2023-03-03T20:09:16.000Z,3.98
2023-03-03T20:13:16.002Z,4.30
2023-03-03T20:17:15.851Z,4.32
2023-03-03T20:21:16.005Z,4.63
2023-03-03T20:25:15.899Z,4.43
2023-03-03T20:29:15.737Z,3.97
2023-03-03T20:33:15.941Z,4.43
2023-03-03T20:37:16.005Z,4.69
2023-03-03T20:41:15.604Z,4.32
2023-03-03T20:45:15.760Z,4.20
2023-03-03T20:49:15.735Z,4.51
2023-03-03T20:53:15.533Z,4.35
2023-03-03T20:57:15.546Z,4.13
2023-03-03T21:01:15.702Z,4.41
2023-03-03T21:05:15.422Z,4.46
2023-03-03T21:09:15.493Z,3.62
2023-03-03T21:13:15.333Z,4.41
2023-03-03T21:17:15.303Z,4.55
2023-03-03T21:21:15.275Z,4.58
2023-03-03T21:25:15.245Z,3.78
2023-03-03T21:29:15.226Z,3.67
2023-03-03T21:33:15.323Z,4.20
2023-03-03T21:37:15.330Z,3.87
2023-03-03T21:41:15.403Z,4.16
2023-03-03T21:45:15.441Z,4.63
2023-03-03T21:49:15.482Z,3.81
2023-03-03T21:53:15.561Z,4.60
2023-03-03T21:57:15.832Z,4.90
2023-03-03T22:01:15.857Z,4.37
2023-03-03T22:05:15.965Z,4.47
2023-03-03T22:09:16.057Z,4.26
2023-03-03T22:13:16.088Z,4.77
2023-03-03T22:17:16.211Z,4.03
2023-03-03T22:21:16.402Z,4.30
2023-03-03T22:25:16.326Z,4.04
2023-03-03T22:29:16.423Z,4.22
2023-03-03T22:33:16.577Z,4.54
2023-03-03T22:37:16.597Z,4.51
2023-03-03T22:41:16.733Z,4.41
2023-03-03T22:45:16.830Z,4.31
2023-03-03T22:49:16.980Z,3.84
2023-03-03T22:53:17.072Z,4.37
2023-03-03T22:57:17.113Z,4.45
2023-03-03T23:01:17.548Z,4.27
2023-03-03T23:05:17.290Z,4.14
2023-03-03T23:09:17.372Z,4.16
2023-03-03T23:13:17.420Z,4.95
2023-03-03T23:17:17.696Z,4.61
2023-03-03T23:21:17.880Z,4.18
2023-03-03T23:25:17.775Z,3.94
2023-03-03T23:29:18.193Z,4.28
2023-03-03T23:33:18.104Z,4.47
2023-03-03T23:37:18.103Z,4.43
2023-03-03T23:41:18.434Z,4.60
2023-03-03T23:45:18.547Z,4.92
2023-03-03T23:49:18.463Z,4.30
2023-03-03T23:53:18.602Z,3.94
2023-03-03T23:57:18.718Z,4.69
